To NAV CANADA Home Page Login to a new session Search on AWWS site Disclaimer Vers la page française équivalente Tips FAQ What's new on the site To the Forecasts and Observations / NOTAM section To "File a Flight Plan" website Publications and other links Update of the User's profile FIC Telephone Numbers My Weather Data Folder Route Weather Data Regional Weather Data Local Weather Data To the Forecasts and Observations / NOTAM section
Request Generated 03/19/2019 at 23:24:50 UTC . Weather information available at that time is displayed.

METAR/TAF

STONY RAPIDS/SK    (show WxCam)

METAR CYSF 192300Z AUTO 23006KT 210V280 9SM CLR 08/M03 A2996 RMK SLP162=
METAR CYSF 192200Z AUTO 28007KT 9SM CLR 08/M03 A2996 RMK SLP161=
METAR CYSF 192100Z AUTO 26004KT 9SM CLR 07/M03 A2996 RMK SLP163=

TAF CYSF 191738Z 1918/2006 VRB03KT P6SM SKC
RMK FCST BASED ON AUTO OBS. NXT FCST BY 200000Z=
Your time UTC time
Weather data provided by Environment Canada and NAV CANADA